Athens, Arkansas
Current Conditions -  °F | °C
As of 8:35 AM on Friday 24 Oct 2014 (Local Time) from KMEZ Reporting Station
Clear Clear  
Wind Chill: 12°   Ceiling: Unl
Heat Index: 12°   Visibility: 7mi
Dew Point: 11°   Wind: 0mph
Humidity: 94%   Direction: NA
Pressure: 30.18"   Gusts: NA
Location:  34.2871°N, 94.1174°W
Report Text: KMEZ 241335Z AUTO 00000KT 7SM CLR 12/11 A3018 RMK AO2
Loading
Personal Weather Stations






























Interactive Weather Map
Tropical Storm Tracking
New forecast layout! Learn more

10-Day Weather Forecast

Advertisements
Track Severe Weather on mobile